Time;durP1;ratioP1;P1;durP2;ratioP2;P2;SDS_P1;SDS_P2;PMS_P1;PMS_P2;Temp;Humidity;BMP_temperature;BMP_pressure;BME280_temperature;BME280_humidity;BME280_pressure;Samples;Min_cycle;Max_cycle;Signal;HPM_P1;HPM_P2
2022/09/23 00:01:09;;;;;;;68.38;38.50;;;6.70;99.90;;;;;;5095529;28;20048;-73
2022/09/23 00:03:40;;;;;;;88.47;43.30;;;6.70;99.90;;;;;;5083561;28;20036;-73
2022/09/23 00:06:10;;;;;;;62.97;33.35;;;6.60;99.90;;;;;;5083589;28;20044;-73
2022/09/23 00:08:38;;;;;;;74.75;36.78;;;6.60;99.90;;;;;;5068678;28;20048;-73
2022/09/23 00:11:08;;;;;;;61.42;30.27;;;6.60;99.90;;;;;;5076818;28;20475;-74
2022/09/23 00:13:36;;;;;;;58.17;29.30;;;6.60;99.90;;;;;;5063108;28;20050;-73
2022/09/23 00:16:07;;;;;;;59.05;27.52;;;6.60;99.90;;;;;;5067725;28;20052;-73
2022/09/23 00:18:34;;;;;;;48.25;24.63;;;6.70;99.90;;;;;;5070861;28;20047;-73
2022/09/23 00:21:04;;;;;;;42.38;23.15;;;6.70;99.90;;;;;;5095671;28;20044;-73
2022/09/23 00:23:32;;;;;;;44.10;22.52;;;6.80;99.90;;;;;;5095944;28;20036;-73
2022/09/23 00:26:01;;;;;;;53.05;24.35;;;6.80;99.90;;;;;;5077198;28;20093;-73
2022/09/23 00:28:28;;;;;;;57.00;27.13;;;6.80;99.90;;;;;;5065253;28;20040;-73
2022/09/23 00:30:56;;;;;;;58.28;28.00;;;6.80;99.90;;;;;;5075167;28;20051;-73
2022/09/23 00:33:25;;;;;;;51.15;27.48;;;6.70;99.90;;;;;;5090321;28;20082;-73
2022/09/23 00:35:59;;;;;;;65.50;30.38;;;6.70;99.90;;;;;;5081009;28;20051;-74
2022/09/23 00:38:26;;;;;;;58.55;30.67;;;6.70;99.90;;;;;;5076828;28;20439;-74
2022/09/23 00:40:54;;;;;;;56.08;31.63;;;6.70;99.90;;;;;;5076995;28;20101;-73
2022/09/23 00:43:38;;;;;;;72.38;34.10;;;6.70;99.90;;;;;;5075880;28;20048;-73
2022/09/23 00:46:08;;;;;;;63.75;34.63;;;6.80;99.90;;;;;;5076888;28;20043;-73
2022/09/23 00:48:39;;;;;;;65.97;32.50;;;6.80;99.90;;;;;;5075708;28;20040;-73
2022/09/23 00:51:08;;;;;;;66.93;32.08;;;6.90;99.90;;;;;;5076727;28;20139;-73
2022/09/23 00:53:37;;;;;;;55.75;28.48;;;6.90;99.90;;;;;;5075848;28;20074;-72
2022/09/23 00:56:08;;;;;;;48.40;25.80;;;6.80;99.90;;;;;;5094278;28;20040;-73
2022/09/23 00:58:38;;;;;;;46.70;26.45;;;6.80;99.90;;;;;;5093699;28;20415;-73
2022/09/23 01:01:06;;;;;;;39.72;23.20;;;6.80;99.90;;;;;;5093622;28;20043;-73
2022/09/23 01:03:33;;;;;;;36.38;21.17;;;6.80;99.90;;;;;;5094950;28;20060;-73
2022/09/23 01:06:02;;;;;;;33.72;20.45;;;6.90;99.90;;;;;;5076401;28;20135;-73
2022/09/23 01:08:30;;;;;;;39.53;20.50;;;6.80;99.90;;;;;;5092854;28;20052;-73
2022/09/23 01:11:06;;;;;;;33.83;19.58;;;6.80;99.90;;;;;;5092744;28;20144;-73
2022/09/23 01:13:50;;;;;;;32.67;19.48;;;6.80;99.90;;;;;;5075606;28;20036;-73
2022/09/23 01:16:24;;;;;;;38.50;23.13;;;6.80;99.90;;;;;;5077461;28;20064;-72
2022/09/23 01:19:01;;;;;;;38.30;22.88;;;6.70;99.90;;;;;;5101490;28;20156;-73
2022/09/23 01:21:47;;;;;;;44.85;26.35;;;6.70;99.90;;;;;;5081771;28;20047;-73
2022/09/23 01:24:44;;;;;;;28.20;17.87;;;6.70;99.90;;;;;;5088783;28;20085;-72
2022/09/23 01:27:26;;;;;;;27.27;16.25;;;6.50;99.90;;;;;;5090113;28;20052;-73
2022/09/23 01:30:16;;;;;;;33.00;20.23;;;6.40;99.90;;;;;;5087807;28;20044;-73
2022/09/23 01:33:17;;;;;;;29.90;19.73;;;6.30;99.90;;;;;;5080117;28;20049;-73
2022/09/23 01:36:06;;;;;;;39.67;22.08;;;6.20;99.90;;;;;;5068079;28;20495;-74
2022/09/23 01:38:42;;;;;;;36.47;23.05;;;6.10;99.90;;;;;;5074104;28;20048;-75
2022/09/23 01:41:20;;;;;;;40.95;24.60;;;6.00;99.90;;;;;;5082425;28;20051;-74
2022/09/23 01:43:58;;;;;;;45.65;24.40;;;6.00;99.90;;;;;;5094850;28;20455;-74
2022/09/23 01:46:31;;;;;;;43.38;26.42;;;6.00;99.90;;;;;;5073869;28;20139;-74
2022/09/23 01:49:06;;;;;;;50.70;27.92;;;6.10;99.90;;;;;;5082631;28;20056;-73
2022/09/23 01:51:37;;;;;;;44.33;25.03;;;6.20;99.90;;;;;;5082933;28;20052;-74
2022/09/23 01:54:11;;;;;;;48.92;25.75;;;6.20;99.90;;;;;;5101881;28;20048;-75
2022/09/23 01:56:46;;;;;;;40.83;23.80;;;6.20;99.90;;;;;;5103893;28;20048;-74
2022/09/23 01:59:20;;;;;;;42.42;22.80;;;6.20;99.90;;;;;;5095882;28;20055;-74
2022/09/23 02:01:54;;;;;;;42.78;22.08;;;6.20;99.90;;;;;;5110257;28;20046;-74
2022/09/23 02:04:29;;;;;;;47.70;21.63;;;6.20;99.90;;;;;;5107981;28;20040;-75
2022/09/23 02:07:00;;;;;;;56.28;23.38;;;6.20;99.90;;;;;;5084251;28;20518;-74
2022/09/23 02:09:33;;;;;;;42.80;21.20;;;6.10;99.90;;;;;;5082058;28;20044;-75
2022/09/23 02:12:04;;;;;;;38.38;21.45;;;6.00;99.90;;;;;;5082005;28;20047;-75
2022/09/23 02:14:36;;;;;;;34.65;20.02;;;6.00;99.90;;;;;;5088780;28;20441;-74
2022/09/23 02:17:09;;;;;;;35.45;20.05;;;6.00;99.90;;;;;;5084655;28;20075;-74
2022/09/23 02:19:45;;;;;;;30.02;18.52;;;6.00;99.90;;;;;;5080755;28;20473;-74
2022/09/23 02:22:15;;;;;;;34.20;20.67;;;6.00;99.90;;;;;;5061581;28;20040;-74
2022/09/23 02:24:43;;;;;;;30.65;18.35;;;6.00;99.90;;;;;;5079229;28;20488;-74
2022/09/23 02:27:20;;;;;;;30.10;17.63;;;5.90;99.90;;;;;;5078285;28;20051;-74
2022/09/23 02:29:54;;;;;;;167.82;25.08;;;5.90;99.90;;;;;;5077450;28;20051;-74
2022/09/23 02:32:29;;;;;;;31.52;17.40;;;5.90;99.90;;;;;;5069237;28;20047;-74
2022/09/23 02:35:07;;;;;;;28.70;17.38;;;5.80;99.90;;;;;;5087598;28;20085;-74
2022/09/23 02:37:42;;;;;;;35.42;19.23;;;5.80;99.90;;;;;;5096466;28;20043;-74
2022/09/23 02:40:17;;;;;;;27.92;17.98;;;5.80;99.90;;;;;;5091340;28;20121;-74
2022/09/23 02:42:53;;;;;;;28.75;17.45;;;5.70;99.90;;;;;;5088030;28;20551;-74
2022/09/23 02:45:21;;;;;;;30.60;16.58;;;5.80;99.90;;;;;;5096298;28;20068;-73
2022/09/23 02:47:53;;;;;;;26.30;15.45;;;5.60;99.90;;;;;;5095606;28;20128;-75
2022/09/23 02:50:22;;;;;;;31.58;16.00;;;5.70;99.90;;;;;;5095961;28;20052;-75
2022/09/23 02:52:49;;;;;;;28.85;16.48;;;5.60;99.90;;;;;;5095207;28;20044;-74
2022/09/23 02:55:22;;;;;;;27.55;15.43;;;5.60;99.90;;;;;;5085840;28;20055;-75
2022/09/23 02:57:52;;;;;;;27.60;15.35;;;5.60;99.90;;;;;;5082412;28;20036;-73
2022/09/23 03:00:19;;;;;;;28.88;14.65;;;5.70;99.90;;;;;;5082558;28;20183;-75
2022/09/23 03:03:06;;;;;;;28.02;14.93;;;5.70;99.90;;;;;;5086852;28;20038;-74
2022/09/23 03:05:41;;;;;;;23.73;14.27;;;5.80;99.90;;;;;;5095713;28;20117;-75
2022/09/23 03:08:26;;;;;;;32.70;13.65;;;5.70;99.90;;;;;;5094316;28;20487;-75
2022/09/23 03:11:00;;;;;;;19.40;12.63;;;5.60;99.90;;;;;;5089412;28;20055;-75
2022/09/23 03:13:37;;;;;;;24.85;14.35;;;5.50;99.90;;;;;;5091429;28;20124;-74
2022/09/23 03:16:12;;;;;;;21.58;13.73;;;5.60;99.90;;;;;;5090874;28;20093;-74
2022/09/23 03:18:42;;;;;;;26.00;14.25;;;5.60;99.90;;;;;;5087607;28;20531;-75
2022/09/23 03:21:17;;;;;;;22.23;13.45;;;5.50;99.90;;;;;;5089354;28;20044;-74
2022/09/23 03:23:47;;;;;;;23.80;15.02;;;5.50;99.90;;;;;;5077045;28;20076;-74
2022/09/23 03:26:18;;;;;;;23.15;14.27;;;5.50;99.90;;;;;;5095498;28;20046;-74
2022/09/23 03:28:47;;;;;;;27.08;14.43;;;5.50;99.90;;;;;;5093558;28;20043;-74
2022/09/23 03:31:16;;;;;;;31.73;16.85;;;5.50;99.90;;;;;;5089334;28;20032;-73
2022/09/23 03:33:47;;;;;;;30.88;15.90;;;5.50;99.90;;;;;;5079355;28;20102;-74
2022/09/23 03:39:12;;;;;;;32.40;19.27;;;5.40;99.90;;;;;;5084428;28;20040;-73
2022/09/23 03:41:51;;;;;;;31.20;19.05;;;5.30;99.90;;;;;;5083511;28;20499;-75
2022/09/23 03:44:19;;;;;;;31.92;19.58;;;5.30;99.90;;;;;;5074640;28;20041;-74
2022/09/23 03:46:49;;;;;;;29.23;18.90;;;5.20;99.90;;;;;;5079273;28;20182;-74
2022/09/23 03:49:19;;;;;;;33.03;19.15;;;5.10;99.90;;;;;;5095152;28;20123;-74
2022/09/23 03:51:48;;;;;;;26.60;17.38;;;5.10;99.90;;;;;;5093985;28;20036;-74
2022/09/23 03:54:18;;;;;;;34.55;19.85;;;5.10;99.90;;;;;;5067946;28;20075;-74
2022/09/23 03:56:46;;;;;;;32.95;19.77;;;5.10;99.90;;;;;;5076145;28;20083;-75
2022/09/23 03:59:14;;;;;;;32.38;19.80;;;5.00;99.90;;;;;;5071004;28;20047;-75
2022/09/23 04:01:42;;;;;;;34.50;20.17;;;5.00;99.90;;;;;;5088394;28;20076;-75
2022/09/23 04:04:10;;;;;;;34.28;20.63;;;5.00;99.90;;;;;;5076643;28;20044;-75
2022/09/23 04:06:37;;;;;;;38.20;20.77;;;5.00;99.90;;;;;;5094544;28;20044;-74
2022/09/23 04:09:17;;;;;;;41.00;23.42;;;5.00;99.90;;;;;;5076923;28;20048;-74
2022/09/23 04:11:44;;;;;;;56.95;33.53;;;5.00;99.90;;;;;;5094523;28;20047;-75
2022/09/23 04:14:12;;;;;;;57.10;22.52;;;5.00;99.90;;;;;;5076494;28;20372;-75
2022/09/23 04:16:39;;;;;;;33.70;19.65;;;5.00;99.90;;;;;;5076762;28;20126;-74
2022/09/23 04:19:07;;;;;;;54.88;20.15;;;5.00;99.90;;;;;;5077087;28;20044;-74
2022/09/23 04:21:34;;;;;;;39.20;21.00;;;5.00;99.90;;;;;;5102804;28;20055;-74
2022/09/23 04:24:02;;;;;;;36.75;17.98;;;5.10;99.90;;;;;;5083104;28;20040;-74
2022/09/23 04:26:31;;;;;;;32.22;16.70;;;5.10;99.90;;;;;;5101353;28;20043;-75
2022/09/23 04:28:59;;;;;;;35.72;16.77;;;5.20;99.90;;;;;;5090010;28;20039;-75
2022/09/23 04:31:27;;;;;;;32.13;17.17;;;5.20;99.90;;;;;;5074131;28;20499;-75
2022/09/23 04:33:55;;;;;;;31.15;17.90;;;5.20;99.90;;;;;;5087398;28;20463;-75
2022/09/23 04:36:22;;;;;;;29.40;17.40;;;5.30;99.90;;;;;;5096417;28;20101;-74
2022/09/23 04:38:50;;;;;;;28.80;17.33;;;5.20;99.90;;;;;;5090919;28;20051;-74
2022/09/23 04:41:19;;;;;;;41.40;22.55;;;5.20;99.90;;;;;;5068394;28;20127;-74
2022/09/23 04:43:47;;;;;;;41.10;21.08;;;5.10;99.90;;;;;;5076364;28;20071;-75
2022/09/23 04:46:16;;;;;;;41.35;24.17;;;5.20;99.90;;;;;;5092892;28;20498;-74
2022/09/23 04:48:44;;;;;;;38.70;23.50;;;5.20;99.90;;;;;;5082013;28;20054;-74
2022/09/23 04:51:14;;;;;;;41.35;23.65;;;5.10;99.90;;;;;;5056017;28;20045;-74
2022/09/23 04:53:44;;;;;;;36.03;19.98;;;5.20;99.90;;;;;;5056035;28;20044;-75
2022/09/23 04:56:13;;;;;;;34.85;19.52;;;5.20;99.90;;;;;;5056125;28;20052;-75
2022/09/23 04:58:41;;;;;;;29.23;16.75;;;5.20;99.90;;;;;;5073332;28;20063;-75
2022/09/23 05:01:12;;;;;;;31.95;19.60;;;5.20;99.90;;;;;;5055983;28;20052;-74
2022/09/23 05:03:40;;;;;;;39.45;22.23;;;5.30;99.90;;;;;;5073461;28;20047;-75
2022/09/23 05:06:09;;;;;;;38.08;21.27;;;5.30;99.90;;;;;;5064960;28;20036;-74
2022/09/23 05:08:37;;;;;;;44.05;25.08;;;5.40;99.90;;;;;;5076725;28;20048;-74
2022/09/23 05:11:05;;;;;;;53.80;28.88;;;5.30;99.90;;;;;;5095856;28;20036;-74
2022/09/23 05:13:34;;;;;;;62.47;29.52;;;5.30;99.90;;;;;;5077817;28;20050;-74
2022/09/23 05:16:05;;;;;;;60.42;31.55;;;5.30;99.90;;;;;;5093884;28;20044;-74
2022/09/23 05:18:35;;;;;;;61.85;29.08;;;5.40;99.90;;;;;;5074831;28;20088;-74
2022/09/23 05:21:03;;;;;;;47.95;25.23;;;5.40;99.90;;;;;;5085611;28;20487;-75
2022/09/23 05:23:31;;;;;;;63.33;28.95;;;5.50;99.90;;;;;;5078058;28;20040;-74
2022/09/23 05:26:00;;;;;;;54.03;27.27;;;5.50;99.90;;;;;;5085081;28;20032;-76
2022/09/23 05:28:31;;;;;;;47.45;26.90;;;5.50;99.90;;;;;;5058465;28;20062;-73
2022/09/23 05:31:03;;;;;;;58.60;27.45;;;5.50;99.90;;;;;;5075634;28;20048;-74
2022/09/23 05:33:30;;;;;;;50.17;26.60;;;5.60;99.90;;;;;;5074904;28;20487;-75
2022/09/23 05:35:59;;;;;;;51.03;26.83;;;5.70;99.90;;;;;;5093363;28;20051;-74
2022/09/23 05:38:28;;;;;;;54.00;28.10;;;5.80;99.90;;;;;;5091520;28;20055;-75
2022/09/23 05:40:57;;;;;;;48.35;27.65;;;6.00;99.90;;;;;;5073873;28;20049;-73
2022/09/23 05:43:24;;;;;;;54.00;28.83;;;6.20;99.90;;;;;;5078271;28;20092;-74
2022/09/23 05:45:52;;;;;;;56.70;26.52;;;6.30;99.90;;;;;;5062330;28;20051;-75
2022/09/23 05:48:20;;;;;;;44.92;24.60;;;6.40;99.90;;;;;;5075542;28;20043;-75
2022/09/23 05:50:51;;;;;;;48.45;27.48;;;6.50;99.90;;;;;;5055889;28;20048;-75
2022/09/23 05:53:20;;;;;;;46.75;27.60;;;6.60;99.90;;;;;;5073083;28;20060;-74
2022/09/23 05:55:48;;;;;;;73.93;29.40;;;6.70;99.90;;;;;;5055102;28;20048;-74
2022/09/23 05:58:15;;;;;;;45.17;25.98;;;6.80;99.90;;;;;;5054935;28;20048;-75
2022/09/23 06:00:44;;;;;;;51.38;28.00;;;6.60;99.90;;;;;;5055123;28;20071;-74
2022/09/23 06:03:13;;;;;;;52.75;28.88;;;6.80;99.90;;;;;;5075124;28;20043;-74
2022/09/23 06:05:40;;;;;;;49.58;26.77;;;6.80;99.90;;;;;;5077283;28;20102;-73
2022/09/23 06:08:08;;;;;;;46.13;26.77;;;6.90;99.90;;;;;;5069904;28;20036;-73
2022/09/23 06:10:38;;;;;;;45.30;24.77;;;7.20;99.90;;;;;;5079650;28;20048;-73
2022/09/23 06:13:06;;;;;;;40.90;22.35;;;7.60;99.90;;;;;;5092260;28;20044;-73
2022/09/23 06:15:33;;;;;;;44.53;22.38;;;8.00;99.90;;;;;;5062451;28;20071;-74
2022/09/23 06:18:01;;;;;;;40.45;23.25;;;8.20;99.90;;;;;;5078622;28;20059;-74
2022/09/23 06:20:28;;;;;;;38.85;21.13;;;8.40;99.90;;;;;;5077166;28;20494;-74
2022/09/23 06:22:56;;;;;;;44.25;23.48;;;8.70;99.90;;;;;;5059033;28;20144;-73
2022/09/23 06:25:24;;;;;;;48.47;22.45;;;9.00;99.90;;;;;;5076892;28;20095;-73
2022/09/23 06:27:56;;;;;;;45.88;26.35;;;9.20;99.90;;;;;;5059266;28;20053;-74
2022/09/23 06:30:25;;;;;;;44.65;23.42;;;9.40;99.90;;;;;;5077228;28;20098;-74
2022/09/23 06:32:54;;;;;;;32.45;19.83;;;9.50;99.90;;;;;;5078439;28;20495;-74
2022/09/23 06:35:22;;;;;;;40.75;21.98;;;9.40;99.90;;;;;;5078307;28;20114;-74
2022/09/23 06:37:50;;;;;;;36.45;20.48;;;9.60;99.90;;;;;;5078892;28;20036;-73
2022/09/23 06:40:17;;;;;;;32.78;19.92;;;9.70;99.90;;;;;;5071788;28;20045;-74
2022/09/23 06:42:45;;;;;;;35.65;20.08;;;9.40;99.90;;;;;;5090337;28;20032;-73
2022/09/23 06:45:15;;;;;;;34.70;20.40;;;9.50;99.90;;;;;;5086399;28;20028;-74
2022/09/23 06:47:43;;;;;;;36.72;20.50;;;9.60;99.90;;;;;;5097528;28;20047;-74
2022/09/23 06:50:12;;;;;;;36.20;21.52;;;9.70;99.90;;;;;;5078656;28;20639;-74
2022/09/23 06:52:41;;;;;;;33.45;20.05;;;9.90;99.90;;;;;;5096754;28;20050;-76
2022/09/23 06:55:10;;;;;;;33.63;21.55;;;10.40;99.90;;;;;;5086712;28;20036;-74
2022/09/23 06:57:38;;;;;;;41.88;22.88;;;10.70;99.90;;;;;;5076796;28;20075;-74
2022/09/23 07:00:07;;;;;;;33.78;20.13;;;10.80;99.90;;;;;;5076721;28;20403;-74
2022/09/23 07:02:35;;;;;;;34.90;20.98;;;11.00;99.90;;;;;;5076168;28;20127;-74
2022/09/23 07:05:03;;;;;;;27.23;17.95;;;11.10;99.90;;;;;;5057937;28;20048;-74
2022/09/23 07:07:31;;;;;;;30.65;19.33;;;11.20;99.90;;;;;;5076274;28;20079;-74
2022/09/23 07:09:59;;;;;;;34.03;21.13;;;11.50;99.90;;;;;;5075619;28;20098;-74
2022/09/23 07:12:26;;;;;;;42.10;24.95;;;11.70;99.90;;;;;;5057835;28;20075;-74
2022/09/23 07:14:53;;;;;;;43.28;24.77;;;11.90;99.90;;;;;;5074759;28;20045;-74
2022/09/23 07:17:20;;;;;;;37.70;24.92;;;12.00;99.90;;;;;;5058100;28;20040;-73
2022/09/23 07:19:50;;;;;;;37.58;23.33;;;12.20;99.90;;;;;;5057440;28;20049;-74
2022/09/23 07:22:17;;;;;;;38.45;24.60;;;12.40;99.90;;;;;;5075207;28;20044;-76
2022/09/23 07:24:46;;;;;;;35.33;23.77;;;12.60;99.90;;;;;;5074874;28;20067;-74
2022/09/23 07:27:15;;;;;;;47.38;31.42;;;13.00;99.90;;;;;;5056916;28;20094;-75
2022/09/23 07:29:42;;;;;;;38.85;24.63;;;13.20;99.90;;;;;;5074999;28;20441;-76
2022/09/23 07:32:11;;;;;;;31.17;21.35;;;13.30;99.90;;;;;;5057374;28;20075;-75
2022/09/23 07:34:38;;;;;;;41.50;22.98;;;13.50;99.90;;;;;;5075425;28;20051;-76
2022/09/23 07:37:07;;;;;;;30.88;20.52;;;13.50;99.90;;;;;;5057837;28;20048;-75
2022/09/23 07:39:35;;;;;;;32.97;22.77;;;13.60;99.90;;;;;;5075373;28;20048;-76
2022/09/23 07:42:04;;;;;;;32.97;19.52;;;13.70;99.90;;;;;;5075459;28;20063;-75
2022/09/23 07:44:31;;;;;;;32.25;22.25;;;13.80;99.90;;;;;;5075208;28;20045;-75
2022/09/23 07:46:59;;;;;;;54.05;26.23;;;13.80;99.90;;;;;;5056887;28;20076;-75
2022/09/23 07:49:28;;;;;;;35.75;26.25;;;13.70;99.90;;;;;;5074945;28;20071;-76
2022/09/23 07:51:55;;;;;;;38.88;24.27;;;13.60;99.90;;;;;;5074902;28;20124;-76
2022/09/23 07:54:28;;;;;;;32.90;20.55;;;13.80;99.90;;;;;;5074490;28;20045;-75
2022/09/23 07:56:56;;;;;;;38.10;22.20;;;13.50;99.90;;;;;;5075089;28;20044;-76
2022/09/23 07:59:23;;;;;;;37.50;20.00;;;13.40;99.90;;;;;;5074518;28;20060;-74
2022/09/23 08:01:52;;;;;;;29.85;17.02;;;13.60;99.90;;;;;;5056722;28;20052;-76
2022/09/23 08:04:22;;;;;;;26.50;15.82;;;13.80;99.90;;;;;;5074679;28;20044;-76
2022/09/23 08:06:52;;;;;;;24.65;13.10;;;13.80;99.90;;;;;;5074665;28;20045;-75
2022/09/23 08:09:22;;;;;;;17.95;8.65;;;13.90;99.90;;;;;;5074374;28;20106;-76
2022/09/23 08:11:51;;;;;;;19.08;12.63;;;14.00;99.90;;;;;;5074439;28;20044;-77
2022/09/23 08:14:21;;;;;;;24.50;14.55;;;14.10;99.90;;;;;;5056017;28;20094;-76
2022/09/23 08:16:48;;;;;;;27.25;14.68;;;14.20;99.90;;;;;;5074047;28;20040;-74
2022/09/23 08:19:16;;;;;;;28.55;15.60;;;14.40;99.90;;;;;;5074022;28;20427;-73
2022/09/23 08:21:46;;;;;;;27.80;15.40;;;14.40;99.90;;;;;;5073869;28;20553;-73
2022/09/23 08:24:16;;;;;;;31.33;16.13;;;14.30;99.90;;;;;;5056230;28;20119;-75
2022/09/23 08:26:44;;;;;;;23.20;14.85;;;14.30;99.90;;;;;;5055137;28;20492;-75
2022/09/23 08:29:15;;;;;;;20.42;10.30;;;14.40;99.90;;;;;;5074149;28;20048;-76
2022/09/23 08:31:42;;;;;;;21.73;12.43;;;14.20;99.90;;;;;;5076777;28;20044;-75
2022/09/23 08:34:10;;;;;;;21.95;11.60;;;13.90;99.90;;;;;;5058464;28;20049;-75
2022/09/23 08:36:38;;;;;;;20.52;12.70;;;13.90;99.90;;;;;;5074169;28;20040;-75
2022/09/23 08:39:06;;;;;;;22.23;13.25;;;13.80;99.90;;;;;;5074198;28;20090;-76
2022/09/23 08:41:43;;;;;;;27.55;14.13;;;13.90;99.90;;;;;;5056307;28;20055;-75
2022/09/23 08:44:16;;;;;;;29.45;19.02;;;14.10;99.90;;;;;;5073913;28;20036;-75
2022/09/23 08:46:48;;;;;;;18.40;10.30;;;14.30;99.90;;;;;;5074607;28;20118;-75
2022/09/23 08:49:26;;;;;;;19.42;12.55;;;14.20;99.90;;;;;;5073941;28;20051;-76
2022/09/23 08:51:54;;;;;;;25.70;12.52;;;14.20;99.90;;;;;;5056333;28;20514;-75
2022/09/23 08:54:22;;;;;;;21.55;10.30;;;14.40;99.90;;;;;;5074553;28;20043;-75
2022/09/23 08:56:52;;;;;;;24.98;12.10;;;14.50;99.90;;;;;;5064353;28;20074;-75
2022/09/23 08:59:27;;;;;;;26.40;11.38;;;14.40;99.90;;;;;;5090299;28;20052;-76
2022/09/23 09:02:00;;;;;;;19.90;11.13;;;14.40;99.90;;;;;;5080969;28;20503;-75
2022/09/23 09:04:38;;;;;;;18.88;9.85;;;14.40;99.90;;;;;;5077574;28;20403;-76
2022/09/23 09:07:14;;;;;;;18.50;8.30;;;14.40;99.90;;;;;;5078203;28;20181;-75
2022/09/23 09:09:46;;;;;;;23.17;12.52;;;14.30;99.90;;;;;;5077679;28;20093;-75
2022/09/23 09:12:17;;;;;;;22.40;11.18;;;14.40;99.90;;;;;;5077398;28;20044;-76
2022/09/23 09:14:54;;;;;;;19.92;10.80;;;14.50;99.90;;;;;;5059915;28;20097;-75
2022/09/23 09:17:30;;;;;;;22.83;11.85;;;14.60;99.90;;;;;;5077167;28;20045;-75
2022/09/23 09:20:04;;;;;;;18.15;11.85;;;14.70;99.90;;;;;;5055120;28;20044;-74
2022/09/23 09:22:52;;;;;;;22.95;12.23;;;14.80;99.90;;;;;;5073367;28;20518;-74
2022/09/23 09:25:39;;;;;;;24.92;14.57;;;15.10;99.90;;;;;;5073299;28;20119;-74
2022/09/23 09:28:15;;;;;;;28.63;16.75;;;15.20;99.90;;;;;;5073146;28;20036;-75
2022/09/23 09:30:45;;;;;;;27.60;14.27;;;15.40;99.90;;;;;;5073657;28;20551;-74
2022/09/23 09:33:16;;;;;;;30.83;14.73;;;15.40;99.90;;;;;;5055687;28;20562;-74
2022/09/23 09:35:59;;;;;;;28.95;14.27;;;15.30;99.90;;;;;;5073501;28;20071;-74
2022/09/23 09:38:27;;;;;;;32.65;17.63;;;15.40;99.90;;;;;;5075941;28;20116;-74
2022/09/23 09:41:00;;;;;;;38.30;17.20;;;15.40;99.90;;;;;;5077419;28;20051;-74
2022/09/23 09:43:27;;;;;;;41.92;18.50;;;15.40;99.90;;;;;;5077778;28;20040;-75
2022/09/23 09:46:07;;;;;;;37.42;15.15;;;15.60;99.90;;;;;;5077254;28;20097;-74
2022/09/23 09:48:40;;;;;;;33.20;14.23;;;15.60;99.90;;;;;;5077679;28;20048;-74
2022/09/23 09:51:20;;;;;;;34.03;15.60;;;15.70;99.90;;;;;;5077866;28;20442;-74
2022/09/23 09:53:50;;;;;;;39.88;15.50;;;15.70;99.90;;;;;;5077861;28;20526;-74
2022/09/23 09:56:21;;;;;;;40.58;15.60;;;15.90;99.90;;;;;;5059936;28;20170;-74
2022/09/23 09:58:51;;;;;;;37.38;16.08;;;15.90;99.90;;;;;;5060847;28;20045;-74
2022/09/23 10:01:23;;;;;;;31.35;12.73;;;15.80;99.90;;;;;;5083931;28;20036;-74
2022/09/23 10:03:52;;;;;;;30.45;12.38;;;15.80;99.90;;;;;;5082342;28;20068;-74
2022/09/23 10:06:23;;;;;;;25.58;10.93;;;15.80;99.90;;;;;;5066984;28;20048;-74
2022/09/23 10:09:10;;;;;;;46.47;13.75;;;15.90;99.90;;;;;;5084330;28;20050;-75
2022/09/23 10:11:38;;;;;;;26.92;11.98;;;16.20;99.90;;;;;;5063617;28;20048;-74
2022/09/23 10:14:11;;;;;;;27.80;11.70;;;16.30;99.90;;;;;;5080950;28;20076;-74
2022/09/23 10:16:41;;;;;;;32.40;13.13;;;16.40;99.90;;;;;;5078110;28;20040;-74
2022/09/23 10:19:24;;;;;;;28.23;12.35;;;16.50;99.90;;;;;;5059791;28;20472;-73
2022/09/23 10:21:58;;;;;;;26.67;10.82;;;16.60;99.90;;;;;;5059471;28;20493;-74
2022/09/23 10:24:29;;;;;;;26.40;13.68;;;16.70;99.90;;;;;;5076580;28;20036;-75
2022/09/23 10:27:00;;;;;;;29.20;11.23;;;16.40;99.90;;;;;;5059025;28;20500;-74
2022/09/23 10:29:31;;;;;;;21.08;11.00;;;16.50;99.90;;;;;;5076651;28;20114;-74
2022/09/23 10:32:20;;;;;;;17.77;8.00;;;16.70;99.90;;;;;;5076567;28;20040;-74
2022/09/23 10:34:51;;;;;;;21.23;10.23;;;16.70;99.90;;;;;;5077102;28;20044;-73
2022/09/23 10:37:24;;;;;;;24.75;11.20;;;17.00;99.90;;;;;;5059157;28;20045;-74
2022/09/23 10:48:41;;;;;;;24.05;11.68;;;17.70;99.90;;;;;;5084800;28;20129;-75
2022/09/23 10:51:19;;;;;;;23.35;10.88;;;18.00;99.90;;;;;;5061038;28;20049;-75
2022/09/23 10:53:58;;;;;;;31.40;16.90;;;18.20;99.90;;;;;;5081655;28;20102;-75
2022/09/23 10:56:32;;;;;;;18.48;9.50;;;18.40;99.90;;;;;;5080018;28;20515;-75
2022/09/23 10:59:19;;;;;;;17.02;8.50;;;18.30;99.90;;;;;;5059470;28;20056;-74
2022/09/23 11:01:57;;;;;;;17.98;9.02;;;18.40;99.10;;;;;;5059742;28;20211;-75
2022/09/23 11:04:55;;;;;;;14.57;7.63;;;18.40;97.70;;;;;;5077606;28;20041;-74
2022/09/23 11:07:28;;;;;;;14.55;7.97;;;18.50;95.10;;;;;;5077529;28;20158;-74
2022/09/23 11:10:19;;;;;;;14.40;6.18;;;18.80;93.70;;;;;;5077020;28;20044;-74
2022/09/23 11:12:57;;;;;;;10.60;5.30;;;19.00;92.50;;;;;;5077153;28;20048;-74
2022/09/23 11:15:36;;;;;;;8.07;4.35;;;18.90;89.60;;;;;;5076838;28;20041;-74
2022/09/23 11:18:49;;;;;;;11.40;5.28;;;19.10;83.90;;;;;;5076445;28;20084;-74
2022/09/23 11:22:01;;;;;;;9.50;5.35;;;18.80;88.10;;;;;;4994614;28;20074;-74
2022/09/23 11:24:56;;;;;;;9.55;5.28;;;18.80;88.10;;;;;;4994807;28;20046;-75
2022/09/23 11:27:35;;;;;;;11.02;7.18;;;18.80;86.30;;;;;;5075786;28;20112;-74
2022/09/23 11:30:08;;;;;;;10.32;4.63;;;19.10;85.20;;;;;;5075934;28;20044;-75
2022/09/23 11:33:02;;;;;;;8.05;5.03;;;19.40;83.50;;;;;;5075713;28;20048;-74
2022/09/23 11:35:34;;;;;;;8.55;5.22;;;19.50;80.00;;;;;;5066964;28;20048;-73
2022/09/23 11:38:09;;;;;;;8.38;5.07;;;19.80;80.70;;;;;;5077873;28;20100;-74
2022/09/23 11:40:40;;;;;;;10.15;5.70;;;19.60;77.80;;;;;;5077315;28;20123;-74
2022/09/23 11:43:22;;;;;;;11.27;7.03;;;19.40;77.90;;;;;;5076991;28;20125;-75
2022/09/23 11:45:55;;;;;;;42.13;26.08;;;19.40;78.60;;;;;;5079720;28;20037;-75
2022/09/23 11:48:29;;;;;;;12.13;7.20;;;19.20;78.20;;;;;;5082603;28;20051;-74
2022/09/23 11:51:00;;;;;;;11.30;6.65;;;18.70;80.20;;;;;;5084611;28;20048;-74
2022/09/23 11:53:39;;;;;;;12.73;7.10;;;18.70;83.80;;;;;;5067875;28;20401;-75
2022/09/23 11:56:13;;;;;;;15.10;7.15;;;18.60;89.50;;;;;;5085578;28;20047;-75
2022/09/23 11:58:45;;;;;;;11.35;6.80;;;18.20;90.30;;;;;;5086324;28;20048;-74
2022/09/23 12:01:18;;;;;;;11.38;7.50;;;18.20;90.30;;;;;;5094462;28;20399;-75
2022/09/23 12:03:51;;;;;;;13.27;7.38;;;18.20;90.70;;;;;;5089857;28;20115;-75
2022/09/23 12:06:21;;;;;;;11.30;7.22;;;18.20;90.90;;;;;;5091412;28;20032;-73
2022/09/23 12:08:56;;;;;;;10.73;6.05;;;18.30;90.90;;;;;;5072055;28;20044;-73
2022/09/23 12:11:30;;;;;;;10.13;6.07;;;18.50;90.30;;;;;;5081595;28;20040;-74
2022/09/23 12:14:16;;;;;;;12.73;5.70;;;18.50;89.50;;;;;;5068336;28;20039;-73
2022/09/23 12:17:27;;;;;;;8.48;4.95;;;18.10;90.20;;;;;;5075068;28;20059;-74
2022/09/23 12:20:18;;;;;;;14.43;6.72;;;17.80;90.30;;;;;;5061451;28;20059;-74
2022/09/23 12:22:59;;;;;;;10.60;6.10;;;17.70;91.30;;;;;;5095729;28;20044;-75
2022/09/23 12:25:45;;;;;;;13.32;6.93;;;17.70;90.80;;;;;;5083344;28;20059;-73
2022/09/23 12:28:17;;;;;;;14.40;6.43;;;17.50;91.20;;;;;;5077088;28;20396;-75
2022/09/23 12:30:47;;;;;;;11.52;6.80;;;17.60;91.50;;;;;;5081027;28;20055;-74
2022/09/23 12:33:23;;;;;;;10.85;6.40;;;17.80;91.60;;;;;;5074241;28;20048;-75
2022/09/23 12:35:52;;;;;;;;;;;17.80;90.70;;;;;;5056967;28;20072;-74
2022/09/23 12:38:24;;;;;;;11.70;7.35;;;17.90;92.10;;;;;;5074314;28;19971;-74
2022/09/23 12:40:54;;;;;;;16.00;7.50;;;17.90;92.10;;;;;;5074022;28;20048;-74
2022/09/23 12:43:29;;;;;;;14.63;7.40;;;17.90;92.10;;;;;;5074991;28;20049;-75
2022/09/23 12:46:17;;;;;;;12.27;6.38;;;17.90;92.30;;;;;;5075222;28;20511;-75
2022/09/23 12:48:47;;;;;;;11.98;5.80;;;18.00;91.90;;;;;;5075584;28;20123;-74
2022/09/23 12:51:20;;;;;;;16.85;8.68;;;17.90;91.40;;;;;;5057523;28;20509;-74
2022/09/23 12:54:21;;;;;;;19.30;10.38;;;17.80;91.70;;;;;;5097974;28;20040;-75
2022/09/23 12:57:00;;;;;;;8.35;5.43;;;17.80;92.10;;;;;;5096920;28;20040;-74
2022/09/23 12:59:30;;;;;;;8.00;3.92;;;17.70;92.00;;;;;;5082036;28;20049;-73
2022/09/23 13:02:10;;;;;;;5.68;3.67;;;17.50;90.60;;;;;;5055808;28;20044;-74
2022/09/23 13:07:44;;;;;;;5.88;3.95;;;17.60;90.60;;;;;;5074173;28;20116;-75
2022/09/23 13:10:17;;;;;;;9.60;5.38;;;17.50;90.00;;;;;;5074103;28;20415;-75
2022/09/23 13:12:47;;;;;;;6.10;3.65;;;17.30;90.80;;;;;;5073040;28;20049;-74
2022/09/23 13:15:27;;;;;;;4.28;2.80;;;17.20;86.50;;;;;;5073183;28;20051;-74
2022/09/23 13:18:38;;;;;;;5.20;3.30;;;17.20;85.80;;;;;;5056138;28;20048;-75